sensor_id;sensor_type;location;lat;lon;timestamp;P1;durP1;ratioP1;P2;durP2;ratioP2
56511;SDS011;42408;53.238;5.686;2022-08-01T00:00:40;8.93;;;4.07;;
56511;SDS011;42408;53.238;5.686;2022-08-01T00:03:06;7.53;;;3.83;;
56511;SDS011;42408;53.238;5.686;2022-08-01T00:05:31;9.33;;;4.17;;
56511;SDS011;42408;53.238;5.686;2022-08-01T00:07:57;9.67;;;3.73;;
56511;SDS011;42408;53.238;5.686;2022-08-01T00:10:23;11.90;;;4.25;;
56511;SDS011;42408;53.238;5.686;2022-08-01T00:12:50;9.05;;;4.65;;
56511;SDS011;42408;53.238;5.686;2022-08-01T00:15:16;8.77;;;4.67;;
56511;SDS011;42408;53.238;5.686;2022-08-01T00:20:10;9.35;;;4.35;;
56511;SDS011;42408;53.238;5.686;2022-08-01T00:22:37;8.88;;;3.90;;
56511;SDS011;42408;53.238;5.686;2022-08-01T00:25:04;7.70;;;3.63;;
56511;SDS011;42408;53.238;5.686;2022-08-01T00:27:30;7.93;;;3.80;;
56511;SDS011;42408;53.238;5.686;2022-08-01T00:29:57;7.85;;;3.63;;
56511;SDS011;42408;53.238;5.686;2022-08-01T00:32:22;7.00;;;3.37;;
56511;SDS011;42408;53.238;5.686;2022-08-01T00:34:48;9.20;;;3.50;;
56511;SDS011;42408;53.238;5.686;2022-08-01T00:37:14;8.00;;;3.53;;
56511;SDS011;42408;53.238;5.686;2022-08-01T00:39:39;9.40;;;3.37;;
56511;SDS011;42408;53.238;5.686;2022-08-01T00:42:06;8.83;;;3.50;;
56511;SDS011;42408;53.238;5.686;2022-08-01T00:44:33;7.30;;;3.08;;
56511;SDS011;42408;53.238;5.686;2022-08-01T00:46:59;8.40;;;3.13;;
56511;SDS011;42408;53.238;5.686;2022-08-01T00:49:26;10.05;;;3.60;;
56511;SDS011;42408;53.238;5.686;2022-08-01T00:54:18;9.38;;;3.60;;
56511;SDS011;42408;53.238;5.686;2022-08-01T00:56:44;11.47;;;3.23;;
56511;SDS011;42408;53.238;5.686;2022-08-01T00:59:09;8.43;;;3.57;;
56511;SDS011;42408;53.238;5.686;2022-08-01T01:01:36;9.27;;;3.33;;
56511;SDS011;42408;53.238;5.686;2022-08-01T01:04:03;5.78;;;2.80;;
56511;SDS011;42408;53.238;5.686;2022-08-01T01:08:57;5.60;;;2.67;;
56511;SDS011;42408;53.238;5.686;2022-08-01T01:14:02;10.02;;;3.28;;
56511;SDS011;42408;53.238;5.686;2022-08-01T01:16:33;15.27;;;4.70;;
56511;SDS011;42408;53.238;5.686;2022-08-01T01:19:02;18.15;;;4.68;;
56511;SDS011;42408;53.238;5.686;2022-08-01T01:21:33;16.27;;;5.13;;
56511;SDS011;42408;53.238;5.686;2022-08-01T01:24:28;18.23;;;5.40;;
56511;SDS011;42408;53.238;5.686;2022-08-01T01:29:54;13.90;;;4.80;;
56511;SDS011;42408;53.238;5.686;2022-08-01T01:32:23;13.95;;;4.57;;
56511;SDS011;42408;53.238;5.686;2022-08-01T01:34:52;19.65;;;5.30;;
56511;SDS011;42408;53.238;5.686;2022-08-01T01:37:20;11.18;;;4.30;;
56511;SDS011;42408;53.238;5.686;2022-08-01T01:39:50;12.15;;;4.13;;
56511;SDS011;42408;53.238;5.686;2022-08-01T01:42:17;12.18;;;5.00;;
56511;SDS011;42408;53.238;5.686;2022-08-01T01:44:44;14.05;;;5.40;;
56511;SDS011;42408;53.238;5.686;2022-08-01T01:47:11;14.18;;;4.55;;
56511;SDS011;42408;53.238;5.686;2022-08-01T01:49:38;13.90;;;4.38;;
56511;SDS011;42408;53.238;5.686;2022-08-01T01:52:06;11.55;;;4.22;;
56511;SDS011;42408;53.238;5.686;2022-08-01T01:59:28;11.27;;;4.18;;
56511;SDS011;42408;53.238;5.686;2022-08-01T02:01:56;11.07;;;4.50;;
56511;SDS011;42408;53.238;5.686;2022-08-01T02:04:24;14.88;;;4.88;;
56511;SDS011;42408;53.238;5.686;2022-08-01T02:06:51;15.35;;;5.03;;
56511;SDS011;42408;53.238;5.686;2022-08-01T02:09:19;13.73;;;4.47;;
56511;SDS011;42408;53.238;5.686;2022-08-01T02:11:48;14.27;;;5.03;;
56511;SDS011;42408;53.238;5.686;2022-08-01T02:14:15;14.13;;;4.63;;
56511;SDS011;42408;53.238;5.686;2022-08-01T02:16:47;12.82;;;3.95;;
56511;SDS011;42408;53.238;5.686;2022-08-01T02:19:15;10.95;;;4.40;;
56511;SDS011;42408;53.238;5.686;2022-08-01T02:21:49;12.55;;;4.03;;
56511;SDS011;42408;53.238;5.686;2022-08-01T02:24:23;7.20;;;3.97;;
56511;SDS011;42408;53.238;5.686;2022-08-01T02:27:01;10.60;;;3.53;;
56511;SDS011;42408;53.238;5.686;2022-08-01T02:29:36;12.10;;;3.92;;
56511;SDS011;42408;53.238;5.686;2022-08-01T02:32:06;10.20;;;3.50;;
56511;SDS011;42408;53.238;5.686;2022-08-01T02:34:35;14.80;;;3.83;;
56511;SDS011;42408;53.238;5.686;2022-08-01T02:37:01;12.87;;;4.03;;
56511;SDS011;42408;53.238;5.686;2022-08-01T02:39:29;8.88;;;4.07;;
56511;SDS011;42408;53.238;5.686;2022-08-01T02:41:57;12.90;;;3.92;;
56511;SDS011;42408;53.238;5.686;2022-08-01T02:44:33;9.18;;;3.88;;
56511;SDS011;42408;53.238;5.686;2022-08-01T02:47:03;8.43;;;3.95;;
56511;SDS011;42408;53.238;5.686;2022-08-01T02:49:39;10.45;;;4.28;;
56511;SDS011;42408;53.238;5.686;2022-08-01T02:52:12;11.40;;;4.13;;
56511;SDS011;42408;53.238;5.686;2022-08-01T02:54:40;12.13;;;4.32;;
56511;SDS011;42408;53.238;5.686;2022-08-01T02:57:08;14.70;;;4.60;;
56511;SDS011;42408;53.238;5.686;2022-08-01T02:59:36;12.60;;;4.95;;
56511;SDS011;42408;53.238;5.686;2022-08-01T03:02:03;13.88;;;4.95;;
56511;SDS011;42408;53.238;5.686;2022-08-01T03:04:30;19.27;;;5.18;;
56511;SDS011;42408;53.238;5.686;2022-08-01T03:06:59;15.70;;;4.32;;
56511;SDS011;42408;53.238;5.686;2022-08-01T03:09:27;19.67;;;5.13;;
56511;SDS011;42408;53.238;5.686;2022-08-01T03:11:56;15.23;;;4.00;;
56511;SDS011;42408;53.238;5.686;2022-08-01T03:14:25;15.27;;;4.38;;
56511;SDS011;42408;53.238;5.686;2022-08-01T03:16:53;18.70;;;5.10;;
56511;SDS011;42408;53.238;5.686;2022-08-01T03:19:20;13.77;;;4.10;;
56511;SDS011;42408;53.238;5.686;2022-08-01T03:21:47;25.35;;;4.80;;
56511;SDS011;42408;53.238;5.686;2022-08-01T03:24:14;12.98;;;4.43;;
56511;SDS011;42408;53.238;5.686;2022-08-01T03:26:42;12.85;;;4.00;;
56511;SDS011;42408;53.238;5.686;2022-08-01T03:29:10;16.27;;;5.20;;
56511;SDS011;42408;53.238;5.686;2022-08-01T03:31:40;14.10;;;4.63;;
56511;SDS011;42408;53.238;5.686;2022-08-01T03:34:09;13.70;;;3.83;;
56511;SDS011;42408;53.238;5.686;2022-08-01T03:36:38;22.23;;;5.53;;
56511;SDS011;42408;53.238;5.686;2022-08-01T03:39:10;20.10;;;4.82;;
56511;SDS011;42408;53.238;5.686;2022-08-01T03:41:38;14.30;;;4.68;;
56511;SDS011;42408;53.238;5.686;2022-08-01T03:44:07;17.35;;;4.78;;
56511;SDS011;42408;53.238;5.686;2022-08-01T03:46:47;16.67;;;4.22;;
56511;SDS011;42408;53.238;5.686;2022-08-01T03:49:20;14.95;;;4.05;;
56511;SDS011;42408;53.238;5.686;2022-08-01T03:51:48;13.35;;;3.90;;
56511;SDS011;42408;53.238;5.686;2022-08-01T03:54:17;16.33;;;3.97;;
56511;SDS011;42408;53.238;5.686;2022-08-01T03:56:46;15.05;;;4.05;;
56511;SDS011;42408;53.238;5.686;2022-08-01T03:59:14;14.63;;;4.40;;
56511;SDS011;42408;53.238;5.686;2022-08-01T04:01:42;15.35;;;4.47;;
56511;SDS011;42408;53.238;5.686;2022-08-01T04:04:09;12.02;;;4.47;;
56511;SDS011;42408;53.238;5.686;2022-08-01T04:06:38;20.70;;;4.10;;
56511;SDS011;42408;53.238;5.686;2022-08-01T04:09:06;19.00;;;4.70;;
56511;SDS011;42408;53.238;5.686;2022-08-01T04:11:32;16.00;;;4.35;;
56511;SDS011;42408;53.238;5.686;2022-08-01T04:13:58;13.10;;;4.37;;
56511;SDS011;42408;53.238;5.686;2022-08-01T04:16:24;17.57;;;4.97;;
56511;SDS011;42408;53.238;5.686;2022-08-01T04:18:50;13.88;;;4.90;;
56511;SDS011;42408;53.238;5.686;2022-08-01T04:21:21;11.77;;;3.58;;
56511;SDS011;42408;53.238;5.686;2022-08-01T04:23:49;11.70;;;4.95;;
56511;SDS011;42408;53.238;5.686;2022-08-01T04:26:18;14.30;;;3.97;;
56511;SDS011;42408;53.238;5.686;2022-08-01T04:28:44;17.25;;;4.20;;
56511;SDS011;42408;53.238;5.686;2022-08-01T04:33:43;16.45;;;4.38;;
56511;SDS011;42408;53.238;5.686;2022-08-01T04:36:13;12.25;;;3.65;;
56511;SDS011;42408;53.238;5.686;2022-08-01T04:38:42;13.75;;;3.83;;
56511;SDS011;42408;53.238;5.686;2022-08-01T04:41:11;15.02;;;3.92;;
56511;SDS011;42408;53.238;5.686;2022-08-01T04:43:38;14.00;;;4.30;;
56511;SDS011;42408;53.238;5.686;2022-08-01T04:48:31;12.77;;;4.13;;
56511;SDS011;42408;53.238;5.686;2022-08-01T04:50:59;15.00;;;4.75;;
56511;SDS011;42408;53.238;5.686;2022-08-01T04:53:25;19.83;;;5.03;;
56511;SDS011;42408;53.238;5.686;2022-08-01T04:55:51;13.88;;;4.00;;
56511;SDS011;42408;53.238;5.686;2022-08-01T04:58:17;15.03;;;3.90;;
56511;SDS011;42408;53.238;5.686;2022-08-01T05:00:43;15.32;;;4.68;;
56511;SDS011;42408;53.238;5.686;2022-08-01T05:03:09;15.75;;;4.05;;
56511;SDS011;42408;53.238;5.686;2022-08-01T05:05:35;10.90;;;4.13;;
56511;SDS011;42408;53.238;5.686;2022-08-01T05:08:00;13.67;;;4.13;;
56511;SDS011;42408;53.238;5.686;2022-08-01T05:10:26;14.83;;;4.40;;
56511;SDS011;42408;53.238;5.686;2022-08-01T05:12:52;11.43;;;4.10;;
56511;SDS011;42408;53.238;5.686;2022-08-01T05:15:18;10.73;;;3.97;;
56511;SDS011;42408;53.238;5.686;2022-08-01T05:17:44;14.33;;;3.77;;
56511;SDS011;42408;53.238;5.686;2022-08-01T05:20:10;12.80;;;4.37;;
56511;SDS011;42408;53.238;5.686;2022-08-01T05:22:36;14.00;;;4.43;;
56511;SDS011;42408;53.238;5.686;2022-08-01T05:25:02;12.85;;;4.18;;
56511;SDS011;42408;53.238;5.686;2022-08-01T05:27:30;17.50;;;4.25;;
56511;SDS011;42408;53.238;5.686;2022-08-01T05:29:56;14.20;;;4.32;;
56511;SDS011;42408;53.238;5.686;2022-08-01T05:32:21;14.13;;;4.20;;
56511;SDS011;42408;53.238;5.686;2022-08-01T05:34:47;16.77;;;4.63;;
56511;SDS011;42408;53.238;5.686;2022-08-01T05:37:13;15.07;;;4.27;;
56511;SDS011;42408;53.238;5.686;2022-08-01T05:39:38;12.90;;;4.27;;
56511;SDS011;42408;53.238;5.686;2022-08-01T05:42:04;15.00;;;4.67;;
56511;SDS011;42408;53.238;5.686;2022-08-01T05:44:30;12.73;;;3.80;;
56511;SDS011;42408;53.238;5.686;2022-08-01T05:46:55;10.83;;;4.00;;
56511;SDS011;42408;53.238;5.686;2022-08-01T05:49:21;15.33;;;3.60;;
56511;SDS011;42408;53.238;5.686;2022-08-01T05:51:47;13.70;;;3.83;;
56511;SDS011;42408;53.238;5.686;2022-08-01T05:54:12;15.73;;;4.07;;
56511;SDS011;42408;53.238;5.686;2022-08-01T05:56:38;12.03;;;3.50;;
56511;SDS011;42408;53.238;5.686;2022-08-01T05:59:04;11.07;;;3.50;;
56511;SDS011;42408;53.238;5.686;2022-08-01T06:01:29;11.40;;;4.30;;
56511;SDS011;42408;53.238;5.686;2022-08-01T06:03:55;13.33;;;3.57;;
56511;SDS011;42408;53.238;5.686;2022-08-01T06:06:21;9.33;;;3.27;;
56511;SDS011;42408;53.238;5.686;2022-08-01T06:08:47;12.05;;;3.15;;
56511;SDS011;42408;53.238;5.686;2022-08-01T06:11:13;11.13;;;3.23;;
56511;SDS011;42408;53.238;5.686;2022-08-01T06:13:38;12.03;;;3.23;;
56511;SDS011;42408;53.238;5.686;2022-08-01T06:16:04;13.50;;;4.07;;
56511;SDS011;42408;53.238;5.686;2022-08-01T06:18:30;12.53;;;3.30;;
56511;SDS011;42408;53.238;5.686;2022-08-01T06:20:55;14.10;;;4.17;;
56511;SDS011;42408;53.238;5.686;2022-08-01T06:23:21;14.47;;;3.60;;
56511;SDS011;42408;53.238;5.686;2022-08-01T06:25:47;11.20;;;3.80;;
56511;SDS011;42408;53.238;5.686;2022-08-01T06:28:13;12.88;;;4.05;;
56511;SDS011;42408;53.238;5.686;2022-08-01T06:30:39;13.80;;;3.47;;
56511;SDS011;42408;53.238;5.686;2022-08-01T06:33:04;8.67;;;3.23;;
56511;SDS011;42408;53.238;5.686;2022-08-01T06:35:30;12.03;;;3.50;;
56511;SDS011;42408;53.238;5.686;2022-08-01T06:37:56;8.93;;;3.40;;
56511;SDS011;42408;53.238;5.686;2022-08-01T06:40:22;11.48;;;3.38;;
56511;SDS011;42408;53.238;5.686;2022-08-01T06:42:48;8.77;;;2.73;;
56511;SDS011;42408;53.238;5.686;2022-08-01T06:45:14;9.00;;;2.83;;
56511;SDS011;42408;53.238;5.686;2022-08-01T06:47:41;11.90;;;2.60;;
56511;SDS011;42408;53.238;5.686;2022-08-01T06:50:08;10.98;;;2.92;;
56511;SDS011;42408;53.238;5.686;2022-08-01T06:52:35;15.55;;;3.40;;
56511;SDS011;42408;53.238;5.686;2022-08-01T06:55:01;9.10;;;2.40;;
56511;SDS011;42408;53.238;5.686;2022-08-01T06:57:27;15.20;;;3.17;;
56511;SDS011;42408;53.238;5.686;2022-08-01T06:59:53;10.07;;;2.67;;
56511;SDS011;42408;53.238;5.686;2022-08-01T07:02:19;9.38;;;2.55;;
56511;SDS011;42408;53.238;5.686;2022-08-01T07:04:45;9.17;;;2.17;;
56511;SDS011;42408;53.238;5.686;2022-08-01T07:07:10;7.77;;;2.30;;
56511;SDS011;42408;53.238;5.686;2022-08-01T07:09:36;7.37;;;2.07;;
56511;SDS011;42408;53.238;5.686;2022-08-01T07:12:02;10.83;;;2.53;;
56511;SDS011;42408;53.238;5.686;2022-08-01T07:14:28;8.02;;;2.50;;
56511;SDS011;42408;53.238;5.686;2022-08-01T07:16:54;11.07;;;2.67;;
56511;SDS011;42408;53.238;5.686;2022-08-01T07:19:19;8.37;;;2.33;;
56511;SDS011;42408;53.238;5.686;2022-08-01T07:21:45;8.23;;;2.00;;
56511;SDS011;42408;53.238;5.686;2022-08-01T07:24:12;8.20;;;2.43;;
56511;SDS011;42408;53.238;5.686;2022-08-01T07:26:42;8.20;;;2.13;;
56511;SDS011;42408;53.238;5.686;2022-08-01T07:29:10;9.27;;;2.30;;
56511;SDS011;42408;53.238;5.686;2022-08-01T07:31:36;6.03;;;2.53;;
56511;SDS011;42408;53.238;5.686;2022-08-01T07:34:02;9.93;;;2.33;;
56511;SDS011;42408;53.238;5.686;2022-08-01T07:36:28;7.07;;;2.15;;
56511;SDS011;42408;53.238;5.686;2022-08-01T07:38:54;8.63;;;2.37;;
56511;SDS011;42408;53.238;5.686;2022-08-01T07:41:20;8.98;;;2.38;;
56511;SDS011;42408;53.238;5.686;2022-08-01T07:43:46;11.00;;;2.30;;
56511;SDS011;42408;53.238;5.686;2022-08-01T07:46:14;8.10;;;2.38;;
56511;SDS011;42408;53.238;5.686;2022-08-01T07:48:41;7.60;;;2.03;;
56511;SDS011;42408;53.238;5.686;2022-08-01T07:51:06;6.70;;;2.30;;
56511;SDS011;42408;53.238;5.686;2022-08-01T07:53:34;7.88;;;2.22;;
56511;SDS011;42408;53.238;5.686;2022-08-01T07:55:59;10.13;;;2.67;;
56511;SDS011;42408;53.238;5.686;2022-08-01T07:58:27;8.07;;;2.28;;
56511;SDS011;42408;53.238;5.686;2022-08-01T08:00:53;7.20;;;2.30;;
56511;SDS011;42408;53.238;5.686;2022-08-01T08:03:18;7.77;;;2.10;;
56511;SDS011;42408;53.238;5.686;2022-08-01T08:05:44;7.57;;;1.90;;
56511;SDS011;42408;53.238;5.686;2022-08-01T08:08:09;8.53;;;2.50;;
56511;SDS011;42408;53.238;5.686;2022-08-01T08:10:35;9.07;;;2.37;;
56511;SDS011;42408;53.238;5.686;2022-08-01T08:13:01;10.93;;;2.65;;
56511;SDS011;42408;53.238;5.686;2022-08-01T08:15:27;7.38;;;2.20;;
56511;SDS011;42408;53.238;5.686;2022-08-01T08:20:18;7.47;;;2.30;;
56511;SDS011;42408;53.238;5.686;2022-08-01T08:22:49;8.23;;;2.80;;
56511;SDS011;42408;53.238;5.686;2022-08-01T08:25:15;7.18;;;2.13;;
56511;SDS011;42408;53.238;5.686;2022-08-01T08:27:41;6.70;;;2.70;;
56511;SDS011;42408;53.238;5.686;2022-08-01T08:30:07;7.10;;;1.90;;
56511;SDS011;42408;53.238;5.686;2022-08-01T08:32:34;8.57;;;2.08;;
56511;SDS011;42408;53.238;5.686;2022-08-01T08:35:00;6.47;;;1.90;;
56511;SDS011;42408;53.238;5.686;2022-08-01T08:37:26;7.22;;;2.00;;
56511;SDS011;42408;53.238;5.686;2022-08-01T08:39:52;6.73;;;1.73;;
56511;SDS011;42408;53.238;5.686;2022-08-01T08:42:17;8.87;;;2.27;;
56511;SDS011;42408;53.238;5.686;2022-08-01T08:44:43;9.77;;;2.00;;
56511;SDS011;42408;53.238;5.686;2022-08-01T08:47:10;9.60;;;1.87;;
56511;SDS011;42408;53.238;5.686;2022-08-01T08:49:37;7.20;;;2.25;;
56511;SDS011;42408;53.238;5.686;2022-08-01T08:52:04;6.05;;;2.03;;
56511;SDS011;42408;53.238;5.686;2022-08-01T08:54:30;9.25;;;2.00;;
56511;SDS011;42408;53.238;5.686;2022-08-01T08:56:57;9.48;;;2.42;;
56511;SDS011;42408;53.238;5.686;2022-08-01T08:59:24;7.68;;;2.00;;
56511;SDS011;42408;53.238;5.686;2022-08-01T09:01:50;4.85;;;1.65;;
56511;SDS011;42408;53.238;5.686;2022-08-01T09:04:16;6.38;;;1.90;;
56511;SDS011;42408;53.238;5.686;2022-08-01T09:06:42;6.75;;;2.25;;
56511;SDS011;42408;53.238;5.686;2022-08-01T09:09:08;8.98;;;2.13;;
56511;SDS011;42408;53.238;5.686;2022-08-01T09:11:35;8.00;;;1.70;;
56511;SDS011;42408;53.238;5.686;2022-08-01T09:16:31;7.60;;;2.03;;
56511;SDS011;42408;53.238;5.686;2022-08-01T09:21:54;4.85;;;1.73;;
56511;SDS011;42408;53.238;5.686;2022-08-01T09:24:24;6.85;;;2.00;;
56511;SDS011;42408;53.238;5.686;2022-08-01T09:26:51;6.55;;;1.70;;
56511;SDS011;42408;53.238;5.686;2022-08-01T09:29:22;7.20;;;1.70;;
56511;SDS011;42408;53.238;5.686;2022-08-01T09:31:49;5.63;;;1.73;;
56511;SDS011;42408;53.238;5.686;2022-08-01T09:34:16;6.63;;;1.85;;
56511;SDS011;42408;53.238;5.686;2022-08-01T09:36:53;6.20;;;1.85;;
56511;SDS011;42408;53.238;5.686;2022-08-01T09:39:26;7.35;;;1.88;;
56511;SDS011;42408;53.238;5.686;2022-08-01T09:41:57;7.43;;;2.15;;
56511;SDS011;42408;53.238;5.686;2022-08-01T09:44:41;6.55;;;1.90;;
56511;SDS011;42408;53.238;5.686;2022-08-01T09:47:09;6.10;;;2.28;;
56511;SDS011;42408;53.238;5.686;2022-08-01T09:49:37;10.35;;;2.20;;
56511;SDS011;42408;53.238;5.686;2022-08-01T09:52:10;4.28;;;1.65;;
56511;SDS011;42408;53.238;5.686;2022-08-01T09:54:41;6.38;;;1.80;;
56511;SDS011;42408;53.238;5.686;2022-08-01T09:57:09;8.43;;;1.95;;
56511;SDS011;42408;53.238;5.686;2022-08-01T09:59:43;9.60;;;2.22;;
56511;SDS011;42408;53.238;5.686;2022-08-01T10:02:14;6.80;;;2.13;;
56511;SDS011;42408;53.238;5.686;2022-08-01T10:04:51;10.60;;;1.88;;
56511;SDS011;42408;53.238;5.686;2022-08-01T10:07:18;7.07;;;1.98;;
56511;SDS011;42408;53.238;5.686;2022-08-01T10:09:44;8.75;;;2.05;;
56511;SDS011;42408;53.238;5.686;2022-08-01T10:12:15;6.60;;;2.13;;
56511;SDS011;42408;53.238;5.686;2022-08-01T10:14:43;3.25;;;1.30;;
56511;SDS011;42408;53.238;5.686;2022-08-01T10:17:11;6.15;;;1.80;;
56511;SDS011;42408;53.238;5.686;2022-08-01T10:19:41;6.15;;;1.90;;
56511;SDS011;42408;53.238;5.686;2022-08-01T10:22:08;6.28;;;1.75;;
56511;SDS011;42408;53.238;5.686;2022-08-01T10:24:38;4.53;;;1.67;;
56511;SDS011;42408;53.238;5.686;2022-08-01T10:27:06;6.70;;;1.98;;
56511;SDS011;42408;53.238;5.686;2022-08-01T10:29:43;6.60;;;2.53;;
56511;SDS011;42408;53.238;5.686;2022-08-01T10:32:12;6.43;;;1.70;;
56511;SDS011;42408;53.238;5.686;2022-08-01T10:34:38;5.90;;;1.60;;
56511;SDS011;42408;53.238;5.686;2022-08-01T10:37:04;5.97;;;1.73;;
56511;SDS011;42408;53.238;5.686;2022-08-01T10:39:32;5.10;;;1.73;;
56511;SDS011;42408;53.238;5.686;2022-08-01T10:41:58;4.45;;;1.83;;
56511;SDS011;42408;53.238;5.686;2022-08-01T10:46:52;6.70;;;1.70;;
56511;SDS011;42408;53.238;5.686;2022-08-01T10:49:25;5.50;;;1.90;;
56511;SDS011;42408;53.238;5.686;2022-08-01T10:51:54;6.13;;;1.85;;
56511;SDS011;42408;53.238;5.686;2022-08-01T10:54:20;5.32;;;1.80;;
56511;SDS011;42408;53.238;5.686;2022-08-01T10:56:51;5.18;;;1.92;;
56511;SDS011;42408;53.238;5.686;2022-08-01T11:01:57;5.07;;;1.58;;
56511;SDS011;42408;53.238;5.686;2022-08-01T11:07:13;7.83;;;1.87;;
56511;SDS011;42408;53.238;5.686;2022-08-01T11:09:43;4.88;;;1.70;;
56511;SDS011;42408;53.238;5.686;2022-08-01T11:12:13;5.25;;;1.67;;
56511;SDS011;42408;53.238;5.686;2022-08-01T11:17:31;6.22;;;1.95;;
56511;SDS011;42408;53.238;5.686;2022-08-01T11:20:06;5.05;;;1.63;;
56511;SDS011;42408;53.238;5.686;2022-08-01T11:25:25;8.30;;;1.92;;
56511;SDS011;42408;53.238;5.686;2022-08-01T11:30:50;5.63;;;1.83;;
56511;SDS011;42408;53.238;5.686;2022-08-01T11:33:18;4.63;;;1.60;;
56511;SDS011;42408;53.238;5.686;2022-08-01T11:38:42;6.35;;;1.73;;
56511;SDS011;42408;53.238;5.686;2022-08-01T11:41:12;5.68;;;1.90;;
56511;SDS011;42408;53.238;5.686;2022-08-01T11:46:53;9.07;;;1.90;;
56511;SDS011;42408;53.238;5.686;2022-08-01T11:57:11;7.10;;;1.95;;
56511;SDS011;42408;53.238;5.686;2022-08-01T11:59:49;10.70;;;2.20;;
56511;SDS011;42408;53.238;5.686;2022-08-01T12:02:17;5.80;;;1.60;;
56511;SDS011;42408;53.238;5.686;2022-08-01T12:04:49;2.65;;;1.20;;
56511;SDS011;42408;53.238;5.686;2022-08-01T12:07:17;6.72;;;1.58;;
56511;SDS011;42408;53.238;5.686;2022-08-01T12:12:09;4.43;;;1.40;;
56511;SDS011;42408;53.238;5.686;2022-08-01T12:14:35;5.22;;;1.80;;
56511;SDS011;42408;53.238;5.686;2022-08-01T12:17:01;7.00;;;1.80;;
56511;SDS011;42408;53.238;5.686;2022-08-01T12:19:27;6.50;;;1.77;;
56511;SDS011;42408;53.238;5.686;2022-08-01T12:22:09;5.30;;;1.45;;
56511;SDS011;42408;53.238;5.686;2022-08-01T12:24:39;4.82;;;1.70;;
56511;SDS011;42408;53.238;5.686;2022-08-01T12:27:06;4.95;;;1.85;;
56511;SDS011;42408;53.238;5.686;2022-08-01T12:29:38;5.47;;;1.83;;
56511;SDS011;42408;53.238;5.686;2022-08-01T12:35:11;5.47;;;1.85;;
56511;SDS011;42408;53.238;5.686;2022-08-01T12:37:45;5.55;;;1.60;;
56511;SDS011;42408;53.238;5.686;2022-08-01T12:40:17;3.50;;;1.52;;
56511;SDS011;42408;53.238;5.686;2022-08-01T12:42:47;5.10;;;1.73;;
56511;SDS011;42408;53.238;5.686;2022-08-01T12:45:14;6.55;;;1.65;;
56511;SDS011;42408;53.238;5.686;2022-08-01T12:47:49;6.00;;;1.70;;
56511;SDS011;42408;53.238;5.686;2022-08-01T12:50:17;4.22;;;1.60;;
56511;SDS011;42408;53.238;5.686;2022-08-01T12:52:45;7.32;;;1.67;;
56511;SDS011;42408;53.238;5.686;2022-08-01T12:57:43;6.57;;;1.77;;
56511;SDS011;42408;53.238;5.686;2022-08-01T13:00:24;4.15;;;1.50;;
56511;SDS011;42408;53.238;5.686;2022-08-01T13:05:40;7.97;;;1.80;;
56511;SDS011;42408;53.238;5.686;2022-08-01T13:08:14;6.00;;;1.80;;
56511;SDS011;42408;53.238;5.686;2022-08-01T13:10:44;7.88;;;2.00;;
56511;SDS011;42408;53.238;5.686;2022-08-01T13:13:10;6.03;;;1.88;;
56511;SDS011;42408;53.238;5.686;2022-08-01T13:15:38;5.30;;;1.80;;
56511;SDS011;42408;53.238;5.686;2022-08-01T13:18:21;6.55;;;1.90;;
56511;SDS011;42408;53.238;5.686;2022-08-01T13:24:05;6.70;;;2.22;;
56511;SDS011;42408;53.238;5.686;2022-08-01T13:26:47;7.88;;;2.20;;
56511;SDS011;42408;53.238;5.686;2022-08-01T13:29:21;6.40;;;1.55;;
56511;SDS011;42408;53.238;5.686;2022-08-01T13:31:54;10.02;;;2.10;;
56511;SDS011;42408;53.238;5.686;2022-08-01T13:34:29;5.27;;;1.70;;
56511;SDS011;42408;53.238;5.686;2022-08-01T13:36:58;8.27;;;2.20;;
56511;SDS011;42408;53.238;5.686;2022-08-01T13:39:26;4.15;;;1.65;;
56511;SDS011;42408;53.238;5.686;2022-08-01T13:42:12;6.15;;;1.60;;
56511;SDS011;42408;53.238;5.686;2022-08-01T13:44:40;5.13;;;1.90;;
56511;SDS011;42408;53.238;5.686;2022-08-01T13:47:06;7.88;;;1.95;;
56511;SDS011;42408;53.238;5.686;2022-08-01T13:49:33;5.82;;;2.00;;
56511;SDS011;42408;53.238;5.686;2022-08-01T13:51:59;7.50;;;1.88;;
56511;SDS011;42408;53.238;5.686;2022-08-01T13:54:25;9.68;;;2.17;;
56511;SDS011;42408;53.238;5.686;2022-08-01T13:56:51;5.45;;;1.58;;
56511;SDS011;42408;53.238;5.686;2022-08-01T13:59:18;4.45;;;1.58;;
56511;SDS011;42408;53.238;5.686;2022-08-01T14:01:43;6.30;;;2.10;;
56511;SDS011;42408;53.238;5.686;2022-08-01T14:04:09;6.38;;;1.92;;
56511;SDS011;42408;53.238;5.686;2022-08-01T14:06:35;9.32;;;1.55;;
56511;SDS011;42408;53.238;5.686;2022-08-01T14:09:01;5.67;;;1.70;;
56511;SDS011;42408;53.238;5.686;2022-08-01T14:11:28;7.68;;;2.13;;
56511;SDS011;42408;53.238;5.686;2022-08-01T14:13:53;4.87;;;1.70;;
56511;SDS011;42408;53.238;5.686;2022-08-01T14:16:19;5.07;;;1.60;;
56511;SDS011;42408;53.238;5.686;2022-08-01T14:18:45;7.07;;;1.90;;
56511;SDS011;42408;53.238;5.686;2022-08-01T14:21:11;3.88;;;1.70;;
56511;SDS011;42408;53.238;5.686;2022-08-01T14:23:36;5.50;;;1.65;;
56511;SDS011;42408;53.238;5.686;2022-08-01T14:26:03;5.93;;;1.80;;
56511;SDS011;42408;53.238;5.686;2022-08-01T14:28:28;3.47;;;1.50;;
56511;SDS011;42408;53.238;5.686;2022-08-01T14:30:55;7.22;;;1.90;;
56511;SDS011;42408;53.238;5.686;2022-08-01T14:33:22;5.78;;;2.10;;
56511;SDS011;42408;53.238;5.686;2022-08-01T14:35:48;4.90;;;1.55;;
56511;SDS011;42408;53.238;5.686;2022-08-01T14:38:13;4.73;;;1.73;;
56511;SDS011;42408;53.238;5.686;2022-08-01T14:40:39;6.40;;;1.83;;
56511;SDS011;42408;53.238;5.686;2022-08-01T14:43:05;7.18;;;1.95;;
56511;SDS011;42408;53.238;5.686;2022-08-01T14:45:31;7.13;;;1.92;;
56511;SDS011;42408;53.238;5.686;2022-08-01T14:47:57;5.97;;;2.00;;
56511;SDS011;42408;53.238;5.686;2022-08-01T14:50:24;8.00;;;2.15;;
56511;SDS011;42408;53.238;5.686;2022-08-01T14:52:51;6.95;;;2.30;;
56511;SDS011;42408;53.238;5.686;2022-08-01T14:55:18;6.47;;;3.20;;
56511;SDS011;42408;53.238;5.686;2022-08-01T14:57:46;5.30;;;1.60;;
56511;SDS011;42408;53.238;5.686;2022-08-01T15:00:12;12.77;;;1.93;;
56511;SDS011;42408;53.238;5.686;2022-08-01T15:02:38;6.68;;;1.80;;
56511;SDS011;42408;53.238;5.686;2022-08-01T15:05:04;4.53;;;1.55;;
56511;SDS011;42408;53.238;5.686;2022-08-01T15:07:30;6.05;;;1.70;;
56511;SDS011;42408;53.238;5.686;2022-08-01T15:12:22;4.82;;;1.50;;
56511;SDS011;42408;53.238;5.686;2022-08-01T15:14:48;3.03;;;1.48;;
56511;SDS011;42408;53.238;5.686;2022-08-01T15:17:18;4.75;;;1.77;;
56511;SDS011;42408;53.238;5.686;2022-08-01T15:19:50;7.43;;;1.80;;
56511;SDS011;42408;53.238;5.686;2022-08-01T15:22:22;5.43;;;1.75;;
56511;SDS011;42408;53.238;5.686;2022-08-01T15:24:49;4.60;;;1.73;;
56511;SDS011;42408;53.238;5.686;2022-08-01T15:27:17;4.78;;;1.63;;
56511;SDS011;42408;53.238;5.686;2022-08-01T15:29:43;8.25;;;1.88;;
56511;SDS011;42408;53.238;5.686;2022-08-01T15:32:10;5.82;;;1.80;;
56511;SDS011;42408;53.238;5.686;2022-08-01T15:34:37;6.80;;;1.65;;
56511;SDS011;42408;53.238;5.686;2022-08-01T15:37:03;7.82;;;1.95;;
56511;SDS011;42408;53.238;5.686;2022-08-01T15:39:30;5.72;;;1.90;;
56511;SDS011;42408;53.238;5.686;2022-08-01T15:42:01;5.22;;;1.90;;
56511;SDS011;42408;53.238;5.686;2022-08-01T15:44:29;8.52;;;1.70;;
56511;SDS011;42408;53.238;5.686;2022-08-01T15:46:55;7.00;;;1.67;;
56511;SDS011;42408;53.238;5.686;2022-08-01T15:49:23;5.67;;;2.10;;
56511;SDS011;42408;53.238;5.686;2022-08-01T15:51:49;5.43;;;1.75;;
56511;SDS011;42408;53.238;5.686;2022-08-01T15:54:15;8.35;;;1.85;;
56511;SDS011;42408;53.238;5.686;2022-08-01T15:56:41;5.15;;;2.05;;
56511;SDS011;42408;53.238;5.686;2022-08-01T15:59:07;6.53;;;1.55;;
56511;SDS011;42408;53.238;5.686;2022-08-01T16:01:32;8.55;;;2.00;;
56511;SDS011;42408;53.238;5.686;2022-08-01T16:03:59;6.95;;;1.90;;